Time;durP1;ratioP1;P1;durP2;ratioP2;P2;SDS_P1;SDS_P2;PMS_P1;PMS_P2;Temp;Humidity;BMP_temperature;BMP_pressure;BME280_temperature;BME280_humidity;BME280_pressure;Samples;Min_cycle;Max_cycle;Signal;HPM_P1;HPM_P2
2023/12/03 00:00:53;;;;;;;34.20;14.93;;;1.60;99.90;;;;;;6211480;23;20020;-65
2023/12/03 00:03:20;;;;;;;33.63;15.80;;;1.60;99.90;;;;;;6211265;23;20016;-66
2023/12/03 00:05:46;;;;;;;34.65;15.60;;;1.60;99.90;;;;;;6210832;23;20024;-65
2023/12/03 00:08:12;;;;;;;33.97;16.23;;;1.50;99.90;;;;;;6211065;23;20123;-66
2023/12/03 00:10:38;;;;;;;37.95;16.33;;;1.50;99.90;;;;;;6184321;23;20027;-66
2023/12/03 00:13:04;;;;;;;33.92;16.20;;;1.60;99.90;;;;;;6211007;23;20013;-66
2023/12/03 00:15:29;;;;;;;36.60;16.27;;;1.50;99.90;;;;;;6184327;23;20021;-66
2023/12/03 00:17:55;;;;;;;36.30;17.13;;;1.50;99.90;;;;;;6210824;23;20048;-66
2023/12/03 00:20:21;;;;;;;37.38;18.67;;;1.50;99.90;;;;;;6183706;23;20025;-66
2023/12/03 00:22:46;;;;;;;35.45;17.05;;;1.50;99.90;;;;;;6183690;23;20031;-66
2023/12/03 00:25:12;;;;;;;35.40;15.82;;;1.50;99.90;;;;;;6211067;23;20020;-66
2023/12/03 00:27:38;;;;;;;33.88;15.93;;;1.50;99.90;;;;;;6211081;23;20017;-66
2023/12/03 00:30:04;;;;;;;33.30;15.73;;;1.50;99.90;;;;;;6210687;23;20464;-66
2023/12/03 00:32:29;;;;;;;38.85;15.27;;;1.50;99.90;;;;;;6210299;23;20097;-66
2023/12/03 00:34:55;;;;;;;34.92;15.23;;;1.50;99.90;;;;;;6210721;23;20106;-66
2023/12/03 00:37:21;;;;;;;29.58;15.80;;;1.50;99.90;;;;;;6184254;23;20031;-66
2023/12/03 00:39:47;;;;;;;35.35;14.90;;;1.60;99.90;;;;;;6211602;23;20444;-66
2023/12/03 00:42:12;;;;;;;35.03;15.65;;;1.50;99.90;;;;;;6184629;23;20103;-66
2023/12/03 00:44:38;;;;;;;33.13;14.68;;;1.50;99.90;;;;;;6210612;23;20032;-66
2023/12/03 00:47:04;;;;;;;31.63;14.88;;;1.50;99.90;;;;;;6183629;23;20060;-67
2023/12/03 00:49:29;;;;;;;36.20;14.20;;;1.50;99.90;;;;;;6210490;23;20068;-66
2023/12/03 00:51:56;;;;;;;32.03;15.50;;;1.50;99.90;;;;;;6210439;23;20103;-67
2023/12/03 00:54:21;;;;;;;36.38;15.07;;;1.50;99.90;;;;;;6210711;23;20527;-66
2023/12/03 00:56:47;;;;;;;27.83;13.57;;;1.50;99.90;;;;;;6210573;23;20020;-66
2023/12/03 00:59:13;;;;;;;27.23;13.45;;;1.50;99.90;;;;;;6184220;23;20094;-66
2023/12/03 01:01:38;;;;;;;30.85;14.00;;;1.50;99.90;;;;;;6184347;23;20017;-66
2023/12/03 01:04:04;;;;;;;28.70;13.27;;;1.50;99.90;;;;;;6210736;23;20032;-66
2023/12/03 01:06:30;;;;;;;29.08;14.18;;;1.50;99.90;;;;;;6210808;23;20016;-66
2023/12/03 01:08:56;;;;;;;28.42;14.23;;;1.50;99.90;;;;;;6212506;23;20100;-66
2023/12/03 01:11:21;;;;;;;31.40;14.32;;;1.50;99.90;;;;;;6185546;23;20028;-66
2023/12/03 01:13:47;;;;;;;32.33;14.77;;;1.40;99.90;;;;;;6212540;23;20020;-66
2023/12/03 01:16:17;;;;;;;29.60;14.10;;;1.40;99.90;;;;;;6212701;23;20017;-66
2023/12/03 01:18:43;;;;;;;26.23;14.40;;;1.40;99.90;;;;;;6212300;23;20043;-66
2023/12/03 01:21:10;;;;;;;31.48;14.93;;;1.40;99.90;;;;;;6212376;23;20390;-66
2023/12/03 01:23:35;;;;;;;33.53;15.05;;;1.50;99.90;;;;;;6212539;23;20104;-66
2023/12/03 01:26:01;;;;;;;28.85;14.48;;;1.40;99.90;;;;;;6185625;23;20044;-66
2023/12/03 01:28:27;;;;;;;32.13;14.45;;;1.40;99.90;;;;;;6185909;23;20075;-67
2023/12/03 01:30:53;;;;;;;32.20;16.13;;;1.40;99.90;;;;;;6185758;23;20099;-66
2023/12/03 01:33:19;;;;;;;30.05;14.57;;;1.40;99.90;;;;;;6212132;23;20020;-66
2023/12/03 01:35:44;;;;;;;30.83;16.42;;;1.50;99.90;;;;;;6212861;23;20097;-66
2023/12/03 01:38:10;;;;;;;32.22;15.13;;;1.50;99.90;;;;;;6212527;23;20016;-66
2023/12/03 01:40:36;;;;;;;28.20;14.60;;;1.50;99.90;;;;;;6185500;23;20033;-66
2023/12/03 01:43:02;;;;;;;26.40;14.73;;;1.60;99.90;;;;;;6212349;23;20162;-66
2023/12/03 01:45:28;;;;;;;29.95;14.93;;;1.60;99.90;;;;;;6212455;23;20346;-66
2023/12/03 01:47:55;;;;;;;28.15;14.55;;;1.50;99.90;;;;;;6211696;23;20028;-67
2023/12/03 01:50:22;;;;;;;35.83;15.35;;;1.60;99.90;;;;;;6212329;23;20031;-66
2023/12/03 01:52:49;;;;;;;27.27;15.00;;;1.70;99.90;;;;;;6212430;23;20341;-66
2023/12/03 01:55:18;;;;;;;32.88;15.48;;;1.70;99.90;;;;;;6185781;23;20087;-66
2023/12/03 01:57:44;;;;;;;29.95;15.15;;;1.70;99.90;;;;;;6212703;23;20396;-66
2023/12/03 02:00:11;;;;;;;31.52;15.73;;;1.70;99.90;;;;;;6212143;23;20087;-66
2023/12/03 02:02:36;;;;;;;34.22;14.82;;;1.80;99.90;;;;;;6211895;23;20051;-68
2023/12/03 02:05:02;;;;;;;37.15;15.93;;;1.80;99.90;;;;;;6211767;23;20020;-66
2023/12/03 02:07:28;;;;;;;32.75;15.27;;;1.90;99.90;;;;;;6212031;23;20013;-66
2023/12/03 02:09:55;;;;;;;35.28;16.40;;;1.80;99.90;;;;;;6211752;23;20092;-67
2023/12/03 02:12:21;;;;;;;33.25;17.05;;;1.80;99.90;;;;;;6212191;23;20024;-67
2023/12/03 02:14:47;;;;;;;31.33;15.85;;;1.80;99.90;;;;;;6185111;23;20031;-66
2023/12/03 02:17:13;;;;;;;35.88;16.00;;;1.90;99.90;;;;;;6185276;23;20083;-66
2023/12/03 02:19:38;;;;;;;28.70;15.13;;;1.80;99.90;;;;;;6212529;23;20020;-66
2023/12/03 02:22:04;;;;;;;35.35;16.77;;;1.90;99.90;;;;;;6212005;23;20528;-67
2023/12/03 02:24:30;;;;;;;32.85;15.98;;;1.90;99.90;;;;;;6212020;23;20048;-66
2023/12/03 02:26:55;;;;;;;33.47;17.90;;;1.90;99.90;;;;;;6211774;23;20012;-66
2023/12/03 02:29:21;;;;;;;31.27;17.13;;;1.90;99.90;;;;;;6184891;23;20047;-67
2023/12/03 02:31:47;;;;;;;37.58;15.45;;;1.90;99.90;;;;;;6211438;23;20020;-66
2023/12/03 02:34:13;;;;;;;34.08;16.08;;;1.80;99.90;;;;;;6211847;23;20024;-66
2023/12/03 02:36:39;;;;;;;31.98;15.27;;;1.90;99.90;;;;;;6211864;23;20051;-66
2023/12/03 02:39:05;;;;;;;34.88;17.33;;;1.80;99.90;;;;;;6211771;23;20016;-66
2023/12/03 02:41:31;;;;;;;32.20;16.55;;;1.80;99.90;;;;;;6184907;23;20031;-66
2023/12/03 02:43:57;;;;;;;34.60;17.08;;;1.80;99.90;;;;;;6211884;23;20091;-66
2023/12/03 02:46:23;;;;;;;37.05;16.92;;;1.80;99.90;;;;;;6184538;23;20470;-65
2023/12/03 02:48:49;;;;;;;36.72;17.05;;;1.80;99.90;;;;;;6211287;23;20028;-66
2023/12/03 02:51:15;;;;;;;43.70;17.20;;;1.80;99.90;;;;;;6211201;23;20334;-66
2023/12/03 02:53:44;;;;;;;31.83;17.05;;;1.90;99.90;;;;;;6211834;23;20020;-66
2023/12/03 02:56:12;;;;;;;39.28;16.27;;;1.90;99.90;;;;;;6211372;23;20095;-65
2023/12/03 02:58:38;;;;;;;37.67;16.85;;;1.90;99.90;;;;;;6211909;23;20417;-66
2023/12/03 03:01:05;;;;;;;33.53;15.05;;;1.90;99.90;;;;;;6211842;23;20100;-66
2023/12/03 03:03:31;;;;;;;31.13;15.52;;;1.80;99.90;;;;;;6185358;23;20021;-66
2023/12/03 03:05:56;;;;;;;34.17;15.90;;;1.90;99.90;;;;;;6212357;23;20088;-66
2023/12/03 03:08:22;;;;;;;34.95;15.90;;;1.80;99.90;;;;;;6211955;23;20067;-66
2023/12/03 03:10:48;;;;;;;35.45;16.02;;;1.90;99.90;;;;;;6211892;23;20043;-65
2023/12/03 03:13:13;;;;;;;33.70;15.10;;;1.90;99.90;;;;;;6211389;23;20024;-67
2023/12/03 03:15:39;;;;;;;34.83;16.27;;;1.90;99.90;;;;;;6159697;23;20024;-66
2023/12/03 03:18:05;;;;;;;35.80;15.57;;;1.90;99.90;;;;;;6211366;23;20459;-66
2023/12/03 03:20:30;;;;;;;35.38;15.35;;;1.90;99.90;;;;;;6211278;23;20101;-66
2023/12/03 03:22:56;;;;;;;42.08;16.40;;;1.90;99.90;;;;;;6184518;23;20013;-66
2023/12/03 03:25:22;;;;;;;30.08;14.93;;;1.90;99.90;;;;;;6184397;23;20090;-66
2023/12/03 03:27:47;;;;;;;33.28;15.15;;;2.00;99.90;;;;;;6211477;23;20031;-66
2023/12/03 03:30:13;;;;;;;36.00;16.63;;;1.90;99.90;;;;;;6210332;23;20016;-66
2023/12/03 03:32:39;;;;;;;34.30;16.23;;;2.00;99.90;;;;;;6210946;23;20017;-66
2023/12/03 03:35:05;;;;;;;37.28;15.98;;;2.00;99.90;;;;;;6211070;23;20020;-66
2023/12/03 03:37:31;;;;;;;39.72;17.10;;;2.00;99.90;;;;;;6211878;23;20072;-66
2023/12/03 03:39:57;;;;;;;39.40;15.95;;;2.00;99.90;;;;;;6211189;23;20032;-66
2023/12/03 03:42:22;;;;;;;31.23;15.80;;;2.00;99.90;;;;;;6210929;23;20020;-66
2023/12/03 03:44:49;;;;;;;45.45;16.45;;;2.00;99.90;;;;;;6211125;23;20024;-66
2023/12/03 03:47:15;;;;;;;39.42;16.20;;;2.00;99.90;;;;;;6184227;23;20671;-66
2023/12/03 03:49:41;;;;;;;35.60;15.73;;;2.00;99.90;;;;;;6184244;23;20048;-66
2023/12/03 03:52:06;;;;;;;38.63;16.38;;;2.10;99.90;;;;;;6184590;23;20016;-66
2023/12/03 03:54:32;;;;;;;43.30;16.88;;;2.10;99.90;;;;;;6211546;23;20016;-66
2023/12/03 03:56:58;;;;;;;40.05;16.95;;;2.10;99.90;;;;;;6184249;23;20039;-66
2023/12/03 03:59:24;;;;;;;43.15;17.77;;;2.00;99.90;;;;;;6210939;23;20023;-66
2023/12/03 04:01:50;;;;;;;43.17;17.77;;;2.10;99.90;;;;;;6210829;23;20048;-66
2023/12/03 04:04:16;;;;;;;38.10;17.45;;;2.10;99.90;;;;;;6184335;23;20075;-66
2023/12/03 04:06:44;;;;;;;42.55;16.83;;;2.00;99.90;;;;;;6211344;23;20116;-66
2023/12/03 04:09:13;;;;;;;37.83;15.90;;;2.00;99.90;;;;;;6210882;23;20523;-65
2023/12/03 04:11:43;;;;;;;42.30;16.98;;;2.10;99.90;;;;;;6211659;23;20020;-65
2023/12/03 04:14:11;;;;;;;30.90;15.90;;;2.00;99.90;;;;;;6210967;23;20023;-66
2023/12/03 04:16:37;;;;;;;43.67;16.77;;;2.10;99.90;;;;;;6211215;23;20024;-66
2023/12/03 04:19:03;;;;;;;42.58;18.05;;;2.10;99.90;;;;;;6184285;23;20499;-66
2023/12/03 04:21:29;;;;;;;43.40;17.55;;;2.10;99.90;;;;;;6211027;23;20020;-66
2023/12/03 04:23:57;;;;;;;39.15;15.35;;;2.10;99.90;;;;;;6210641;23;20031;-65
2023/12/03 04:26:23;;;;;;;38.25;15.85;;;2.20;99.90;;;;;;6210900;23;20029;-65
2023/12/03 04:28:48;;;;;;;39.67;15.90;;;2.10;99.90;;;;;;6210623;23;20482;-66
2023/12/03 04:31:25;;;;;;;41.42;16.77;;;2.10;99.90;;;;;;6183842;23;20024;-65
2023/12/03 04:33:57;;;;;;;34.35;15.50;;;2.10;99.90;;;;;;6210990;23;20016;-66
2023/12/03 04:36:23;;;;;;;45.77;17.63;;;2.10;99.90;;;;;;6211007;23;20031;-65
2023/12/03 04:38:50;;;;;;;34.65;14.52;;;2.10;99.90;;;;;;6211161;23;20248;-66
2023/12/03 04:41:16;;;;;;;37.08;15.23;;;2.20;99.90;;;;;;6211989;23;20016;-68
2023/12/03 04:43:42;;;;;;;41.78;15.70;;;2.10;99.90;;;;;;6213327;23;20020;-65
2023/12/03 04:46:08;;;;;;;42.00;14.13;;;2.10;99.90;;;;;;6187002;23;20062;-65
2023/12/03 04:48:35;;;;;;;37.40;15.63;;;2.20;99.90;;;;;;6185821;23;20028;-66
2023/12/03 04:51:01;;;;;;;39.03;16.77;;;2.20;99.90;;;;;;6161108;23;20115;-65
2023/12/03 04:53:26;;;;;;;41.40;16.15;;;2.10;99.90;;;;;;6185817;23;20017;-66
2023/12/03 04:55:52;;;;;;;37.40;17.00;;;2.20;99.90;;;;;;6212311;23;20024;-65
2023/12/03 04:58:18;;;;;;;42.85;16.05;;;2.20;99.90;;;;;;6185780;23;20021;-66
2023/12/03 05:00:44;;;;;;;40.80;16.48;;;2.20;99.90;;;;;;6186061;23;20024;-65
2023/12/03 05:03:09;;;;;;;41.45;16.92;;;2.10;99.90;;;;;;6212778;23;20420;-66
2023/12/03 05:05:35;;;;;;;37.45;14.55;;;2.20;99.90;;;;;;6212809;23;20029;-65
2023/12/03 05:08:01;;;;;;;41.80;16.08;;;2.20;99.90;;;;;;6212762;23;20032;-66
2023/12/03 05:10:29;;;;;;;36.05;14.95;;;2.20;99.90;;;;;;6212325;23;20020;-65
2023/12/03 05:12:55;;;;;;;41.53;14.15;;;2.20;99.90;;;;;;6212673;23;20091;-65
2023/12/03 05:15:21;;;;;;;32.38;14.43;;;2.20;99.90;;;;;;6212992;23;20016;-65
2023/12/03 05:17:47;;;;;;;38.38;14.98;;;2.20;99.90;;;;;;6212665;23;20417;-66
2023/12/03 05:20:13;;;;;;;38.13;13.68;;;2.20;99.90;;;;;;6212553;23;20021;-66
2023/12/03 05:22:38;;;;;;;37.47;14.50;;;2.10;99.90;;;;;;6212742;23;20017;-66
2023/12/03 05:25:05;;;;;;;31.80;12.88;;;2.20;99.90;;;;;;6212379;23;20119;-66
2023/12/03 05:27:31;;;;;;;39.65;15.20;;;2.10;99.90;;;;;;6212538;23;20020;-66
2023/12/03 05:29:57;;;;;;;36.70;15.15;;;2.20;99.90;;;;;;6212954;23;20088;-66
2023/12/03 05:32:22;;;;;;;41.45;15.60;;;2.20;99.90;;;;;;6212119;23;20032;-66
2023/12/03 05:34:48;;;;;;;37.55;13.35;;;2.20;99.90;;;;;;6212293;23;20012;-66
2023/12/03 05:37:14;;;;;;;31.70;14.93;;;2.30;99.90;;;;;;6212641;23;20025;-65
2023/12/03 05:39:42;;;;;;;39.05;14.38;;;2.20;99.90;;;;;;6212201;23;20453;-65
2023/12/03 05:42:07;;;;;;;38.33;14.57;;;2.20;99.90;;;;;;6212389;23;20536;-66
2023/12/03 05:44:33;;;;;;;38.85;13.88;;;2.20;99.90;;;;;;6212772;23;20020;-66
2023/12/03 05:47:00;;;;;;;35.38;13.13;;;2.20;99.90;;;;;;6212347;23;20009;-66
2023/12/03 05:49:26;;;;;;;34.47;14.32;;;2.30;99.90;;;;;;6212501;23;20017;-66
2023/12/03 05:51:52;;;;;;;38.65;14.93;;;2.20;99.90;;;;;;6185695;23;20100;-65
2023/12/03 05:54:18;;;;;;;38.22;15.20;;;2.30;99.90;;;;;;6212296;23;20066;-65
2023/12/03 05:56:45;;;;;;;37.40;14.40;;;2.30;99.90;;;;;;6212469;23;20020;-66
2023/12/03 05:59:11;;;;;;;38.50;14.50;;;2.20;99.90;;;;;;6212075;23;20441;-66
2023/12/03 06:01:37;;;;;;;39.75;15.07;;;2.20;99.90;;;;;;6185685;23;20019;-67
2023/12/03 06:04:06;;;;;;;39.72;15.80;;;2.30;99.90;;;;;;6212144;23;20016;-65
2023/12/03 06:06:33;;;;;;;32.28;14.77;;;2.20;99.90;;;;;;6212158;23;20023;-66
2023/12/03 06:08:58;;;;;;;43.17;15.30;;;2.20;99.90;;;;;;6211850;23;20112;-66
2023/12/03 06:11:24;;;;;;;38.65;16.02;;;2.30;99.90;;;;;;6211692;23;20100;-65
2023/12/03 06:13:50;;;;;;;42.67;16.25;;;2.30;99.90;;;;;;6212212;23;20052;-66
2023/12/03 06:16:15;;;;;;;47.40;16.67;;;2.30;99.90;;;;;;6211912;23;20051;-65
2023/12/03 06:18:42;;;;;;;44.88;15.63;;;2.30;99.90;;;;;;6212105;23;20013;-66
2023/12/03 06:21:08;;;;;;;40.45;15.45;;;2.30;99.90;;;;;;6212193;23;20025;-66
2023/12/03 06:23:34;;;;;;;38.78;15.05;;;2.40;99.90;;;;;;6212099;23;20021;-65
2023/12/03 06:26:00;;;;;;;40.08;14.93;;;2.30;99.90;;;;;;6211910;23;20070;-67
2023/12/03 06:28:25;;;;;;;39.80;14.90;;;2.30;99.90;;;;;;6184995;23;20441;-65
2023/12/03 06:30:51;;;;;;;39.47;16.40;;;2.30;99.90;;;;;;6185461;23;20044;-65
2023/12/03 06:33:19;;;;;;;43.22;17.98;;;2.30;99.90;;;;;;6184684;23;20020;-65
2023/12/03 06:35:45;;;;;;;37.50;14.85;;;2.30;99.90;;;;;;6212193;23;20013;-65
2023/12/03 06:38:11;;;;;;;43.30;16.50;;;2.20;99.90;;;;;;6185518;23;20023;-66
2023/12/03 06:40:36;;;;;;;43.38;16.45;;;2.30;99.90;;;;;;6212282;23;20095;-65
2023/12/03 06:43:02;;;;;;;45.38;16.30;;;2.20;99.90;;;;;;6211982;23;20030;-65
2023/12/03 06:45:28;;;;;;;40.15;15.73;;;2.30;99.90;;;;;;6211455;23;20021;-65
2023/12/03 06:47:54;;;;;;;42.92;16.35;;;2.20;99.90;;;;;;6211527;23;20025;-67
2023/12/03 06:50:19;;;;;;;44.47;15.50;;;2.30;99.90;;;;;;6211765;23;20390;-65
2023/12/03 06:52:45;;;;;;;38.92;14.77;;;2.30;99.90;;;;;;6211035;23;20075;-66
2023/12/03 06:55:15;;;;;;;54.70;18.42;;;2.30;99.90;;;;;;6211794;23;20655;-65
2023/12/03 06:57:40;;;;;;;45.80;15.77;;;2.30;99.90;;;;;;6184740;23;20365;-66
2023/12/03 07:00:07;;;;;;;41.83;16.65;;;2.40;99.90;;;;;;6211541;23;20055;-65
2023/12/03 07:02:33;;;;;;;48.45;17.00;;;2.30;99.90;;;;;;6211958;23;20349;-66
2023/12/03 07:04:58;;;;;;;48.00;16.88;;;2.30;99.90;;;;;;6211297;23;20012;-66
2023/12/03 07:07:24;;;;;;;44.10;16.65;;;2.30;99.90;;;;;;6211149;23;20150;-67
2023/12/03 07:09:50;;;;;;;36.47;15.77;;;2.30;99.90;;;;;;6211687;23;20052;-65
2023/12/03 07:12:16;;;;;;;45.67;16.55;;;2.40;99.90;;;;;;6211971;23;20036;-65
2023/12/03 07:14:43;;;;;;;45.45;15.85;;;2.30;99.90;;;;;;6184735;23;20020;-68
2023/12/03 07:17:09;;;;;;;39.00;15.98;;;2.30;99.90;;;;;;6211360;23;20066;-66
2023/12/03 07:19:35;;;;;;;41.30;15.75;;;2.40;99.90;;;;;;6211435;23;20017;-66
2023/12/03 07:22:00;;;;;;;44.17;15.43;;;2.30;99.90;;;;;;6211057;23;20024;-66
2023/12/03 07:24:26;;;;;;;49.88;16.67;;;2.30;99.90;;;;;;6211341;23;20020;-64
2023/12/03 07:26:52;;;;;;;37.28;15.02;;;2.40;99.90;;;;;;6211496;23;20060;-66
2023/12/03 07:29:19;;;;;;;43.70;15.73;;;2.40;99.90;;;;;;6211513;23;20127;-66
2023/12/03 07:31:44;;;;;;;38.85;15.55;;;2.40;99.90;;;;;;6210883;23;20056;-66
2023/12/03 07:34:10;;;;;;;39.38;15.13;;;2.40;99.90;;;;;;6211272;23;20031;-66
2023/12/03 07:36:36;;;;;;;40.75;14.57;;;2.30;99.90;;;;;;6210854;23;20842;-65
2023/12/03 07:39:02;;;;;;;44.22;16.27;;;2.40;99.90;;;;;;6211356;23;20143;-68
2023/12/03 07:41:28;;;;;;;41.28;15.63;;;2.40;99.90;;;;;;6211134;23;20123;-65
2023/12/03 07:43:53;;;;;;;42.15;15.40;;;2.40;99.90;;;;;;6211465;23;20020;-66
2023/12/03 07:46:19;;;;;;;39.40;15.77;;;2.30;99.90;;;;;;6211476;23;20059;-66
2023/12/03 07:48:45;;;;;;;43.15;15.07;;;2.30;99.90;;;;;;6210800;23;20365;-66
2023/12/03 07:51:11;;;;;;;46.42;15.68;;;2.30;99.90;;;;;;6210544;23;20549;-64
2023/12/03 07:53:38;;;;;;;40.90;15.52;;;2.30;99.90;;;;;;6211362;23;20076;-65
2023/12/03 07:56:04;;;;;;;44.72;16.98;;;2.30;99.90;;;;;;6211317;23;20394;-64
2023/12/03 07:58:30;;;;;;;44.65;16.17;;;2.30;99.90;;;;;;6211027;23;20036;-65
2023/12/03 08:00:58;;;;;;;51.03;18.08;;;2.40;99.90;;;;;;6211386;23;20017;-65
2023/12/03 08:03:23;;;;;;;51.17;19.17;;;2.30;99.90;;;;;;6211312;23;20484;-66
2023/12/03 08:05:49;;;;;;;50.13;17.70;;;2.40;99.90;;;;;;6184090;23;20027;-65
2023/12/03 08:08:15;;;;;;;50.83;18.60;;;2.40;99.90;;;;;;6210869;23;20031;-65
2023/12/03 08:10:40;;;;;;;54.53;17.90;;;2.50;99.90;;;;;;6211350;23;20021;-66
2023/12/03 08:13:06;;;;;;;47.97;17.35;;;2.40;99.90;;;;;;6211187;23;20360;-64
2023/12/03 08:15:32;;;;;;;46.72;17.73;;;2.40;99.90;;;;;;6211304;23;20070;-64
2023/12/03 08:17:57;;;;;;;46.80;17.98;;;2.60;99.90;;;;;;6210939;23;20020;-66
2023/12/03 08:20:23;;;;;;;50.28;17.88;;;2.50;99.90;;;;;;6183304;23;20019;-65
2023/12/03 08:22:49;;;;;;;50.40;19.52;;;2.50;99.90;;;;;;6183979;23;20096;-69
2023/12/03 08:25:14;;;;;;;50.25;18.35;;;2.50;99.90;;;;;;6210834;23;20124;-65
2023/12/03 08:27:40;;;;;;;48.85;17.73;;;2.50;99.90;;;;;;6210846;23;20467;-65
2023/12/03 08:30:07;;;;;;;43.15;18.15;;;2.50;99.90;;;;;;6210356;23;20031;-65
2023/12/03 08:32:32;;;;;;;44.03;17.23;;;2.50;99.90;;;;;;6210562;23;20063;-66
2023/12/03 08:34:58;;;;;;;55.15;19.17;;;2.50;99.90;;;;;;6210104;23;20012;-65
2023/12/03 08:37:24;;;;;;;46.55;18.05;;;2.50;99.90;;;;;;6184166;23;20024;-65
2023/12/03 08:39:50;;;;;;;51.25;17.75;;;2.50;99.90;;;;;;6211143;23;20017;-65
2023/12/03 08:42:17;;;;;;;43.17;16.92;;;2.40;99.90;;;;;;6210838;23;20013;-64
2023/12/03 08:44:42;;;;;;;49.22;18.60;;;2.40;99.90;;;;;;6211046;23;20330;-65
2023/12/03 08:47:08;;;;;;;45.33;18.05;;;2.50;99.90;;;;;;6210681;23;20027;-65
2023/12/03 08:49:34;;;;;;;45.05;17.77;;;2.50;99.90;;;;;;6210524;23;20020;-65
2023/12/03 08:52:00;;;;;;;52.92;17.65;;;2.50;99.90;;;;;;6210683;23;20441;-65
2023/12/03 08:54:26;;;;;;;44.15;17.55;;;2.50;99.90;;;;;;6210734;23;20483;-65
2023/12/03 08:56:51;;;;;;;47.00;17.77;;;2.60;99.90;;;;;;6211060;23;20019;-68
2023/12/03 08:59:19;;;;;;;52.58;19.10;;;2.50;99.90;;;;;;6210321;23;20021;-65
2023/12/03 09:01:45;;;;;;;50.40;19.08;;;2.60;99.90;;;;;;6183961;23;20028;-65
2023/12/03 09:04:12;;;;;;;54.95;19.83;;;2.50;99.90;;;;;;6210480;23;20395;-66
2023/12/03 09:06:39;;;;;;;50.70;19.63;;;2.60;99.90;;;;;;6210581;23;20020;-66
2023/12/03 09:09:05;;;;;;;47.45;20.15;;;2.60;99.90;;;;;;6210863;23;20345;-65
2023/12/03 09:11:31;;;;;;;47.97;20.60;;;2.60;99.90;;;;;;6211048;23;20013;-65
2023/12/03 09:13:58;;;;;;;50.25;20.42;;;2.60;99.90;;;;;;6210943;23;20020;-65
2023/12/03 09:16:24;;;;;;;47.63;20.35;;;2.70;99.90;;;;;;6210833;23;20444;-65
2023/12/03 09:18:49;;;;;;;42.92;19.50;;;2.60;99.90;;;;;;6210298;23;20025;-67
2023/12/03 09:21:16;;;;;;;48.38;21.05;;;2.60;99.90;;;;;;6210654;23;20027;-66
2023/12/03 09:23:43;;;;;;;48.47;21.10;;;2.70;99.90;;;;;;6210137;23;20028;-66
2023/12/03 09:26:09;;;;;;;44.97;21.92;;;2.70;99.90;;;;;;6210715;23;20063;-65
2023/12/03 09:28:34;;;;;;;51.15;21.98;;;2.70;99.90;;;;;;6211600;23;20462;-66
2023/12/03 09:31:00;;;;;;;50.83;21.90;;;2.80;99.90;;;;;;6185097;23;20020;-65
2023/12/03 09:33:27;;;;;;;52.67;21.73;;;2.70;99.90;;;;;;6212128;23;20050;-66
2023/12/03 09:35:53;;;;;;;46.53;22.02;;;2.70;99.90;;;;;;6212044;23;20025;-67
2023/12/03 09:38:20;;;;;;;48.58;21.25;;;2.70;99.90;;;;;;6212260;23;20461;-66
2023/12/03 09:40:48;;;;;;;48.97;23.77;;;2.70;99.90;;;;;;6212539;23;20095;-66
2023/12/03 09:43:18;;;;;;;54.92;23.85;;;2.70;99.90;;;;;;6213027;23;20012;-67
2023/12/03 09:45:45;;;;;;;44.03;21.58;;;2.70;99.90;;;;;;6212428;23;20020;-66
2023/12/03 09:48:13;;;;;;;45.53;21.35;;;2.70;99.90;;;;;;6212280;23;20156;-66
2023/12/03 09:50:43;;;;;;;52.10;22.42;;;2.70;99.90;;;;;;6212151;23;20091;-66
2023/12/03 09:53:14;;;;;;;42.55;21.33;;;2.60;99.90;;;;;;6212581;23;20016;-66
2023/12/03 09:55:41;;;;;;;43.92;21.00;;;2.60;99.90;;;;;;6212534;23;20023;-66
2023/12/03 09:58:10;;;;;;;43.42;21.98;;;2.70;99.90;;;;;;6212537;23;20017;-67
2023/12/03 10:00:39;;;;;;;46.15;21.88;;;2.70;99.90;;;;;;6212020;23;20025;-66
2023/12/03 10:03:05;;;;;;;47.47;21.65;;;2.60;99.90;;;;;;6212182;23;20027;-67
2023/12/03 10:05:31;;;;;;;39.17;20.55;;;2.60;99.90;;;;;;6212051;23;20063;-66
2023/12/03 10:07:58;;;;;;;44.53;22.27;;;2.60;99.90;;;;;;6185216;23;20095;-66
2023/12/03 10:10:31;;;;;;;45.40;21.92;;;2.60;99.90;;;;;;6211731;23;20023;-66
2023/12/03 10:12:58;;;;;;;43.33;20.05;;;2.70;99.90;;;;;;6212136;23;20056;-66
2023/12/03 10:15:25;;;;;;;45.60;20.55;;;2.70;99.90;;;;;;6211663;23;20075;-66
2023/12/03 10:17:50;;;;;;;38.10;18.25;;;2.60;99.90;;;;;;6185368;23;20017;-67
2023/12/03 10:20:24;;;;;;;38.65;19.55;;;2.60;99.90;;;;;;6212377;23;20040;-66
2023/12/03 10:22:50;;;;;;;38.78;19.48;;;2.60;99.90;;;;;;6212494;23;20084;-66
2023/12/03 10:25:31;;;;;;;38.15;20.05;;;2.70;99.90;;;;;;6185345;23;20052;-66
2023/12/03 10:27:59;;;;;;;40.05;18.90;;;2.70;99.90;;;;;;6185407;23;20016;-66
2023/12/03 10:30:25;;;;;;;40.72;19.85;;;2.70;99.90;;;;;;6212013;23;20020;-66
2023/12/03 10:32:51;;;;;;;40.00;20.42;;;2.70;99.90;;;;;;6211153;23;20005;-66
2023/12/03 10:35:20;;;;;;;42.35;20.60;;;2.70;99.90;;;;;;6212117;23;20342;-66
2023/12/03 10:37:46;;;;;;;38.85;20.17;;;2.70;99.90;;;;;;6211855;23;20016;-66
2023/12/03 10:40:12;;;;;;;39.78;19.27;;;2.70;99.90;;;;;;6211483;23;20027;-66
2023/12/03 10:42:38;;;;;;;41.70;18.77;;;2.70;99.90;;;;;;6212803;23;20119;-66
2023/12/03 10:45:10;;;;;;;40.47;20.67;;;2.70;99.90;;;;;;6211903;23;20067;-65
2023/12/03 10:47:37;;;;;;;41.53;20.35;;;2.70;99.90;;;;;;6185470;23;20404;-66
2023/12/03 10:50:05;;;;;;;38.53;18.58;;;2.60;99.90;;;;;;6212149;23;20024;-65
2023/12/03 10:52:32;;;;;;;38.63;19.52;;;2.70;99.90;;;;;;6211990;23;20020;-65
2023/12/03 10:54:58;;;;;;;38.33;19.52;;;2.70;99.90;;;;;;6211638;23;20504;-65
2023/12/03 10:57:29;;;;;;;42.72;20.27;;;2.70;99.90;;;;;;6184870;23;20012;-65
2023/12/03 11:00:10;;;;;;;39.70;19.60;;;2.70;99.90;;;;;;6213558;23;20081;-65
2023/12/03 11:02:46;;;;;;;38.63;18.05;;;2.70;99.90;;;;;;6214397;23;20020;-65
2023/12/03 11:05:29;;;;;;;34.95;18.50;;;2.70;99.90;;;;;;6214255;23;20480;-65
2023/12/03 11:07:55;;;;;;;;;;;2.70;99.90;;;;;;6214314;23;20032;-65
2023/12/03 11:10:22;;;;;;;38.15;19.45;;;2.60;99.90;;;;;;6213506;23;20214;-65
2023/12/03 11:12:48;;;;;;;40.35;18.10;;;2.70;99.90;;;;;;6212088;23;20016;-65
2023/12/03 11:15:15;;;;;;;41.70;18.30;;;2.70;99.90;;;;;;6212136;23;20023;-65
2023/12/03 11:17:44;;;;;;;39.97;17.60;;;2.60;99.90;;;;;;6184966;23;20091;-65
2023/12/03 11:20:16;;;;;;;45.53;19.00;;;2.50;99.90;;;;;;6211845;23;20016;-66
2023/12/03 11:23:01;;;;;;;45.47;19.00;;;2.60;99.90;;;;;;6211746;23;20114;-67
2023/12/03 11:25:34;;;;;;;42.15;18.98;;;2.60;99.90;;;;;;6184668;23;20027;-67
2023/12/03 11:28:00;;;;;;;46.10;19.63;;;2.60;99.90;;;;;;6211035;23;20106;-67
2023/12/03 11:30:42;;;;;;;44.92;19.92;;;2.70;99.90;;;;;;6211329;23;20020;-66
2023/12/03 11:33:19;;;;;;;41.63;20.00;;;2.60;99.90;;;;;;6211358;23;20043;-66
2023/12/03 11:35:46;;;;;;;47.20;20.52;;;2.60;99.90;;;;;;6211715;23;20016;-66
2023/12/03 11:38:21;;;;;;;48.95;20.30;;;2.60;99.90;;;;;;6184830;23;20111;-66
2023/12/03 11:40:49;;;;;;;44.13;21.10;;;2.50;99.90;;;;;;6211671;23;20017;-66
2023/12/03 11:43:28;;;;;;;49.25;22.73;;;2.50;99.90;;;;;;6210978;23;20021;-67
2023/12/03 11:45:54;;;;;;;47.25;20.85;;;2.60;99.90;;;;;;6211532;23;20332;-66
2023/12/03 11:48:21;;;;;;;48.70;21.70;;;2.60;99.90;;;;;;6184573;23;20029;-67
2023/12/03 11:50:48;;;;;;;49.60;21.88;;;2.60;99.90;;;;;;6210881;23;20059;-66
2023/12/03 11:53:15;;;;;;;47.38;22.67;;;2.60;99.90;;;;;;6211126;23;20241;-66
2023/12/03 11:55:45;;;;;;;46.22;20.60;;;2.70;99.90;;;;;;6211514;23;20031;-66
2023/12/03 11:58:11;;;;;;;56.90;23.63;;;2.60;99.90;;;;;;6210967;23;20024;-67
2023/12/03 12:00:38;;;;;;;49.53;22.50;;;2.60;99.90;;;;;;6209553;23;20020;-69
2023/12/03 12:03:05;;;;;;;53.22;22.27;;;2.50;99.90;;;;;;6210625;23;20500;-67
2023/12/03 12:05:31;;;;;;;54.15;22.33;;;2.50;99.90;;;;;;6210934;23;20013;-69
2023/12/03 12:08:01;;;;;;;45.78;21.60;;;2.50;99.90;;;;;;6211087;23;20048;-67
2023/12/03 12:10:31;;;;;;;50.50;21.98;;;2.50;99.90;;;;;;6210690;23;20384;-67
2023/12/03 12:12:58;;;;;;;49.35;22.65;;;2.50;99.90;;;;;;6211023;23;20015;-67
2023/12/03 12:15:25;;;;;;;55.17;22.95;;;2.60;99.90;;;;;;6210419;23;20013;-67
2023/12/03 12:17:51;;;;;;;49.70;22.10;;;2.60;99.90;;;;;;6210539;23;20015;-67
2023/12/03 12:20:28;;;;;;;49.45;22.33;;;2.70;99.90;;;;;;6210876;23;20183;-67
2023/12/03 12:22:55;;;;;;;46.00;20.08;;;2.70;99.90;;;;;;6210556;23;20020;-67
2023/12/03 12:25:23;;;;;;;44.63;21.13;;;2.80;99.90;;;;;;6183862;23;20021;-67
2023/12/03 12:27:50;;;;;;;50.33;20.65;;;2.80;99.90;;;;;;6210781;23;20031;-67
2023/12/03 12:30:18;;;;;;;46.25;21.10;;;2.90;99.90;;;;;;6159168;23;20021;-68
2023/12/03 12:32:45;;;;;;;44.97;20.65;;;2.90;99.90;;;;;;6210857;23;20310;-67
2023/12/03 12:35:12;;;;;;;40.67;18.00;;;2.90;99.90;;;;;;6211132;23;20017;-69